createdAt,value
2018-09-09T00:00:52.141Z,100.00
2018-09-09T00:03:20.657Z,100.00
2018-09-09T00:05:49.624Z,100.00
2018-09-09T00:08:18.091Z,100.00
2018-09-09T00:10:46.590Z,100.00
2018-09-09T00:13:15.238Z,100.00
2018-09-09T00:15:43.784Z,100.00
2018-09-09T00:18:13.410Z,100.00
2018-09-09T00:20:41.846Z,100.00
2018-09-09T00:23:10.299Z,100.00
2018-09-09T00:25:38.860Z,100.00
2018-09-09T00:28:07.287Z,100.00
2018-09-09T00:30:36.033Z,100.00
2018-09-09T00:33:04.506Z,100.00
2018-09-09T00:35:33.014Z,100.00
2018-09-09T00:38:01.506Z,100.00
2018-09-09T00:40:29.978Z,100.00
2018-09-09T00:42:58.485Z,100.00
2018-09-09T00:45:26.950Z,100.00
2018-09-09T00:47:55.438Z,100.00
2018-09-09T00:50:29.151Z,100.00
2018-09-09T00:53:03.025Z,100.00
2018-09-09T00:55:31.539Z,100.00
2018-09-09T00:58:00.090Z,100.00
2018-09-09T01:00:33.833Z,100.00
2018-09-09T01:03:02.304Z,100.00
2018-09-09T01:05:30.795Z,100.00
2018-09-09T01:07:59.266Z,100.00
2018-09-09T01:10:27.721Z,100.00
2018-09-09T01:12:56.449Z,100.00
2018-09-09T01:15:24.897Z,100.00
2018-09-09T01:17:53.433Z,100.00
2018-09-09T01:20:22.058Z,100.00
2018-09-09T01:22:51.101Z,100.00
2018-09-09T01:25:19.542Z,100.00
2018-09-09T01:27:48.041Z,100.00
2018-09-09T01:30:16.517Z,100.00
2018-09-09T01:32:45.047Z,100.00
2018-09-09T01:35:13.879Z,100.00
2018-09-09T01:37:42.630Z,100.00
2018-09-09T01:40:11.125Z,100.00
2018-09-09T01:42:39.694Z,100.00
2018-09-09T01:45:08.145Z,100.00
2018-09-09T01:47:36.625Z,100.00
2018-09-09T01:50:05.230Z,100.00
2018-09-09T01:52:33.688Z,100.00
2018-09-09T01:55:02.227Z,100.00
2018-09-09T01:57:30.756Z,100.00
2018-09-09T01:59:59.201Z,100.00
2018-09-09T02:02:27.708Z,100.00
2018-09-09T02:04:56.220Z,100.00
2018-09-09T02:07:24.693Z,100.00
2018-09-09T02:09:53.129Z,100.00
2018-09-09T02:12:21.669Z,100.00
2018-09-09T02:14:50.272Z,100.00
2018-09-09T02:17:18.697Z,100.00
2018-09-09T02:19:47.189Z,100.00
2018-09-09T02:22:15.647Z,100.00
2018-09-09T02:24:44.146Z,100.00
2018-09-09T02:27:12.798Z,100.00
2018-09-09T02:29:41.322Z,100.00
2018-09-09T02:32:09.773Z,100.00
2018-09-09T02:34:38.282Z,100.00
2018-09-09T02:37:06.831Z,100.00
2018-09-09T02:39:35.385Z,100.00
2018-09-09T02:42:03.806Z,100.00
2018-09-09T02:44:32.409Z,100.00
2018-09-09T02:47:00.964Z,100.00
2018-09-09T02:49:29.504Z,100.00
2018-09-09T02:51:57.931Z,100.00
2018-09-09T02:54:26.450Z,100.00
2018-09-09T02:56:54.937Z,100.00
2018-09-09T02:59:23.409Z,100.00
2018-09-09T03:01:52.050Z,100.00
2018-09-09T03:04:20.563Z,100.00
2018-09-09T03:06:49.382Z,100.00
2018-09-09T03:09:17.849Z,100.00
2018-09-09T03:11:46.307Z,100.00
2018-09-09T03:14:14.838Z,100.00
2018-09-09T03:16:43.293Z,100.00
2018-09-09T03:19:11.825Z,100.00
2018-09-09T03:21:40.325Z,100.00
2018-09-09T03:24:08.853Z,100.00
2018-09-09T03:26:37.318Z,100.00
2018-09-09T03:29:05.917Z,100.00
2018-09-09T03:31:34.364Z,100.00
2018-09-09T03:34:02.853Z,100.00
2018-09-09T03:36:31.319Z,100.00
2018-09-09T03:38:59.933Z,100.00
2018-09-09T03:41:28.338Z,100.00
2018-09-09T03:43:56.795Z,100.00
2018-09-09T03:46:25.254Z,100.00
2018-09-09T03:48:53.716Z,100.00
2018-09-09T03:51:22.230Z,100.00
2018-09-09T03:53:51.281Z,100.00
2018-09-09T03:56:19.801Z,100.00
2018-09-09T03:58:48.254Z,100.00
2018-09-09T04:01:16.773Z,100.00
2018-09-09T04:03:45.606Z,100.00
2018-09-09T04:06:14.374Z,100.00
2018-09-09T04:08:42.802Z,100.00
2018-09-09T04:11:12.387Z,100.00
2018-09-09T04:13:43.099Z,100.00
2018-09-09T04:16:12.803Z,100.00
2018-09-09T04:18:42.448Z,100.00
2018-09-09T04:21:10.969Z,100.00
2018-09-09T04:23:39.585Z,100.00
2018-09-09T04:26:08.021Z,100.00
2018-09-09T04:28:36.591Z,100.00
2018-09-09T04:31:05.201Z,100.00
2018-09-09T04:33:33.658Z,100.00
2018-09-09T04:36:02.161Z,100.00
2018-09-09T04:38:30.673Z,100.00
2018-09-09T04:40:59.121Z,100.00
2018-09-09T04:43:27.588Z,100.00
2018-09-09T04:45:56.111Z,100.00
2018-09-09T04:48:24.618Z,100.00
2018-09-09T04:50:53.085Z,100.00
2018-09-09T04:53:21.515Z,100.00
2018-09-09T04:55:50.474Z,100.00
2018-09-09T04:58:18.911Z,100.00
2018-09-09T05:00:47.372Z,100.00
2018-09-09T05:03:15.890Z,100.00
2018-09-09T05:05:44.353Z,100.00
2018-09-09T05:08:12.899Z,100.00
2018-09-09T05:10:41.430Z,100.00
2018-09-09T05:13:09.956Z,100.00
2018-09-09T05:15:38.438Z,100.00
2018-09-09T05:18:06.885Z,100.00
2018-09-09T05:20:35.325Z,100.00
2018-09-09T05:23:03.837Z,100.00
2018-09-09T05:25:32.322Z,100.00
2018-09-09T05:28:00.801Z,100.00
2018-09-09T05:30:29.250Z,100.00
2018-09-09T05:32:57.770Z,100.00
2018-09-09T05:35:26.229Z,100.00
2018-09-09T05:37:54.717Z,100.00
2018-09-09T05:40:23.169Z,100.00
2018-09-09T05:42:52.147Z,100.00
2018-09-09T05:45:20.562Z,100.00
2018-09-09T05:47:49.140Z,100.00
2018-09-09T05:50:17.742Z,100.00
2018-09-09T05:52:46.242Z,100.00
2018-09-09T05:55:14.683Z,100.00
2018-09-09T05:57:43.214Z,100.00
2018-09-09T06:00:11.823Z,100.00
2018-09-09T06:02:40.226Z,100.00
2018-09-09T06:05:08.814Z,100.00
2018-09-09T06:07:37.298Z,100.00
2018-09-09T06:10:05.986Z,100.00
2018-09-09T06:12:34.470Z,100.00
2018-09-09T06:15:02.970Z,100.00
2018-09-09T06:17:31.453Z,100.00
2018-09-09T06:19:59.937Z,100.00
2018-09-09T06:22:28.582Z,100.00
2018-09-09T06:24:57.522Z,100.00
2018-09-09T06:27:26.034Z,100.00
2018-09-09T06:29:54.473Z,100.00
2018-09-09T06:32:22.932Z,100.00
2018-09-09T06:34:52.081Z,100.00
2018-09-09T06:37:20.539Z,100.00
2018-09-09T06:39:49.086Z,100.00
2018-09-09T06:42:17.771Z,100.00
2018-09-09T06:44:46.195Z,100.00
2018-09-09T06:47:14.645Z,100.00
2018-09-09T06:49:43.170Z,100.00
2018-09-09T06:52:11.594Z,100.00
2018-09-09T06:54:40.118Z,100.00
2018-09-09T06:57:08.565Z,100.00
2018-09-09T06:59:37.065Z,100.00
2018-09-09T07:02:05.541Z,98.65
2018-09-09T07:04:34.017Z,97.86
2018-09-09T07:07:02.523Z,97.76
2018-09-09T07:09:30.933Z,96.90
2018-09-09T07:11:59.371Z,95.59
2018-09-09T07:14:27.906Z,94.82
2018-09-09T07:16:56.363Z,94.64
2018-09-09T07:19:24.822Z,93.32
2018-09-09T07:21:53.289Z,92.78
2018-09-09T07:24:21.747Z,92.91
2018-09-09T07:26:50.526Z,91.72
2018-09-09T07:29:18.918Z,91.27
2018-09-09T07:31:47.413Z,91.18
2018-09-09T07:34:15.925Z,90.68
2018-09-09T07:36:44.447Z,91.07
2018-09-09T07:39:12.910Z,89.87
2018-09-09T07:41:41.359Z,88.65
2018-09-09T07:44:09.825Z,89.21
2018-09-09T07:46:38.321Z,88.26
2018-09-09T07:49:06.969Z,87.76
2018-09-09T07:51:35.417Z,86.26
2018-09-09T07:54:03.931Z,86.12
2018-09-09T07:56:32.557Z,86.79
2018-09-09T07:59:01.174Z,85.83
2018-09-09T08:01:29.613Z,84.79
2018-09-09T08:03:58.083Z,84.30
2018-09-09T08:06:26.650Z,83.20
2018-09-09T08:08:55.050Z,82.91
2018-09-09T08:11:27.730Z,82.76
2018-09-09T08:13:56.127Z,80.58
2018-09-09T08:16:24.637Z,81.32
2018-09-09T08:18:53.149Z,81.23
2018-09-09T08:21:21.582Z,80.32
2018-09-09T08:23:50.563Z,78.93
2018-09-09T08:26:19.061Z,78.46
2018-09-09T08:28:47.512Z,77.50
2018-09-09T08:31:16.037Z,77.88
2018-09-09T08:33:44.541Z,76.83
2018-09-09T08:36:13.410Z,77.55
2018-09-09T08:38:41.838Z,76.60
2018-09-09T08:41:10.391Z,75.28
2018-09-09T08:43:38.877Z,75.14
2018-09-09T08:46:07.381Z,74.79
2018-09-09T08:48:36.078Z,73.09
2018-09-09T08:51:04.686Z,73.67
2018-09-09T08:53:33.201Z,73.01
2018-09-09T08:56:01.626Z,72.17
2018-09-09T08:58:30.123Z,70.48
2018-09-09T09:00:58.656Z,69.84
2018-09-09T09:03:27.085Z,69.26
2018-09-09T09:05:55.570Z,69.04
2018-09-09T09:08:24.053Z,66.99
2018-09-09T09:10:52.646Z,66.99
2018-09-09T09:13:21.124Z,67.22
2018-09-09T09:15:49.629Z,66.70
2018-09-09T09:18:18.073Z,65.32
2018-09-09T09:20:46.536Z,64.63
2018-09-09T09:23:15.085Z,65.40
2018-09-09T09:25:48.899Z,63.61
2018-09-09T09:28:17.433Z,63.61
2018-09-09T09:30:46.124Z,63.28
2018-09-09T09:33:14.685Z,61.40
2018-09-09T09:35:48.187Z,61.50
2018-09-09T09:38:17.542Z,59.42
2018-09-09T09:40:46.006Z,56.86
2018-09-09T09:43:14.509Z,53.71
2018-09-09T09:45:43.325Z,50.94
2018-09-09T09:48:11.854Z,49.84
2018-09-09T09:50:40.303Z,46.93
2018-09-09T09:53:08.834Z,46.20
2018-09-09T09:55:37.589Z,44.95
2018-09-09T09:58:06.189Z,43.82
2018-09-09T10:00:39.827Z,42.72
2018-09-09T10:03:08.271Z,43.70
2018-09-09T10:05:36.907Z,43.27
2018-09-09T10:08:05.817Z,40.75
2018-09-09T10:10:34.414Z,41.00
2018-09-09T10:13:03.007Z,40.66
2018-09-09T10:15:31.469Z,39.89
2018-09-09T10:17:59.949Z,37.32
2018-09-09T10:20:28.495Z,39.02
2018-09-09T10:22:56.909Z,38.62
2018-09-09T10:25:25.425Z,37.52
2018-09-09T10:27:53.897Z,35.86
2018-09-09T10:30:22.452Z,36.88
2018-09-09T10:32:51.734Z,35.64
2018-09-09T10:35:20.253Z,34.73
2018-09-09T10:37:48.697Z,34.54
2018-09-09T10:40:17.145Z,32.51
2018-09-09T10:42:45.575Z,33.27
2018-09-09T10:45:14.209Z,33.78
2018-09-09T10:47:42.662Z,30.61
2018-09-09T10:50:11.406Z,32.72
2018-09-09T10:52:39.801Z,31.78
2018-09-09T10:55:08.333Z,30.28
2018-09-09T10:57:36.794Z,29.72
2018-09-09T11:00:05.869Z,30.03
2018-09-09T11:02:34.347Z,28.95
2018-09-09T11:05:02.867Z,28.90
2018-09-09T11:07:31.297Z,29.83
2018-09-09T11:09:59.706Z,26.43
2018-09-09T11:12:30.079Z,27.23
2018-09-09T11:14:59.838Z,26.34
2018-09-09T11:17:29.131Z,27.82
2018-09-09T11:19:58.130Z,26.57
2018-09-09T11:22:27.205Z,27.47
2018-09-09T11:24:55.732Z,24.95
2018-09-09T11:27:24.530Z,25.72
2018-09-09T11:29:53.115Z,25.09
2018-09-09T11:32:21.589Z,24.52
2018-09-09T11:34:50.277Z,23.99
2018-09-09T11:37:18.731Z,23.80
2018-09-09T11:39:47.753Z,23.60
2018-09-09T11:42:16.281Z,22.64
2018-09-09T11:44:44.834Z,21.79
2018-09-09T11:47:13.263Z,21.47
2018-09-09T11:49:41.769Z,19.69
2018-09-09T11:52:10.189Z,21.17
2018-09-09T11:54:38.716Z,20.45
2018-09-09T11:57:07.334Z,21.26
2018-09-09T11:59:35.918Z,20.63
2018-09-09T12:02:04.406Z,20.16
2018-09-09T12:04:32.846Z,19.52
2018-09-09T12:07:01.340Z,18.95
2018-09-09T12:09:29.834Z,17.71
2018-09-09T12:11:58.373Z,16.70
2018-09-09T12:14:26.867Z,17.60
2018-09-09T12:16:55.402Z,17.93
2018-09-09T12:19:24.315Z,17.68
2018-09-09T12:21:52.985Z,16.82
2018-09-09T12:24:21.684Z,17.11
2018-09-09T12:26:51.214Z,17.24
2018-09-09T12:29:19.869Z,16.59
2018-09-09T12:31:48.314Z,15.82
2018-09-09T12:34:16.801Z,15.64
2018-09-09T12:36:45.377Z,15.11
2018-09-09T12:39:13.942Z,15.25
2018-09-09T12:41:42.433Z,15.32
2018-09-09T12:44:16.174Z,14.35
2018-09-09T12:46:50.202Z,15.75
2018-09-09T12:49:18.578Z,14.67
2018-09-09T12:51:47.005Z,15.24
2018-09-09T12:54:15.513Z,13.25
2018-09-09T12:56:43.997Z,13.26
2018-09-09T12:59:12.528Z,13.28
2018-09-09T13:01:41.073Z,13.37
2018-09-09T13:04:09.633Z,13.46
2018-09-09T13:06:38.149Z,12.86
2018-09-09T13:09:07.985Z,12.03
2018-09-09T13:11:36.423Z,12.33
2018-09-09T13:14:05.057Z,12.80
2018-09-09T13:16:33.458Z,12.15
2018-09-09T13:19:01.954Z,11.41
2018-09-09T13:21:30.425Z,11.09
2018-09-09T13:23:58.890Z,11.17
2018-09-09T13:26:27.379Z,10.11
2018-09-09T13:28:55.865Z,10.41
2018-09-09T13:31:24.333Z,8.67
2018-09-09T13:33:52.941Z,9.68
2018-09-09T13:36:21.418Z,9.72
2018-09-09T13:38:50.625Z,9.95
2018-09-09T13:41:19.357Z,11.76
2018-09-09T13:43:47.849Z,9.18
2018-09-09T13:46:16.377Z,9.75
2018-09-09T13:48:44.897Z,8.90
2018-09-09T13:51:13.700Z,9.31
2018-09-09T13:53:42.127Z,9.02
2018-09-09T13:56:10.586Z,8.50
2018-09-09T13:58:39.087Z,8.85
2018-09-09T14:01:07.559Z,8.43
2018-09-09T14:03:36.106Z,8.46
2018-09-09T14:06:04.530Z,8.04
2018-09-09T14:08:33.026Z,8.14
2018-09-09T14:11:01.478Z,7.93
2018-09-09T14:13:30.053Z,7.99
2018-09-09T14:15:58.586Z,7.83
2018-09-09T14:18:27.205Z,8.12
2018-09-09T14:20:55.665Z,8.37
2018-09-09T14:23:24.441Z,7.85
2018-09-09T14:25:52.993Z,9.88
2018-09-09T14:28:21.514Z,7.97
2018-09-09T14:30:50.488Z,7.72
2018-09-09T14:33:18.975Z,8.34
2018-09-09T14:35:47.467Z,7.59
2018-09-09T14:38:15.970Z,7.15
2018-09-09T14:40:44.414Z,8.40
2018-09-09T14:43:13.050Z,8.49
2018-09-09T14:45:41.527Z,8.24
2018-09-09T14:48:09.979Z,7.93
2018-09-09T14:50:38.426Z,8.22
2018-09-09T14:53:07.044Z,8.43
2018-09-09T14:55:35.489Z,8.85
2018-09-09T14:58:04.037Z,7.98
2018-09-09T15:00:32.502Z,8.00
2018-09-09T15:03:00.917Z,7.56
2018-09-09T15:05:29.465Z,8.41
2018-09-09T15:07:57.921Z,8.28
2018-09-09T15:10:26.386Z,7.97
2018-09-09T15:12:54.870Z,8.08
2018-09-09T15:15:23.339Z,8.31
2018-09-09T15:17:52.303Z,8.32
2018-09-09T15:20:20.740Z,8.77
2018-09-09T15:22:49.765Z,7.79
2018-09-09T15:25:18.302Z,8.09
2018-09-09T15:27:46.835Z,7.67
2018-09-09T15:30:15.634Z,9.34
2018-09-09T15:32:44.106Z,8.68
2018-09-09T15:35:12.678Z,8.59
2018-09-09T15:37:41.273Z,9.22
2018-09-09T15:40:09.805Z,7.95
2018-09-09T15:42:38.289Z,8.21
2018-09-09T15:45:06.845Z,8.47
2018-09-09T15:47:35.341Z,7.79
2018-09-09T15:50:03.897Z,9.35
2018-09-09T15:52:32.302Z,9.08
2018-09-09T15:55:00.849Z,8.68
2018-09-09T15:57:29.298Z,10.48
2018-09-09T15:59:58.642Z,8.58
2018-09-09T16:02:27.157Z,8.33
2018-09-09T16:04:55.570Z,9.27
2018-09-09T16:07:24.118Z,9.58
2018-09-09T16:09:52.794Z,9.56
2018-09-09T16:12:21.334Z,9.53
2018-09-09T16:14:51.583Z,9.29
2018-09-09T16:17:20.122Z,9.03
2018-09-09T16:19:48.636Z,10.10
2018-09-09T16:22:17.038Z,9.76
2018-09-09T16:24:45.730Z,9.10
2018-09-09T16:27:14.469Z,9.00
2018-09-09T16:29:43.102Z,9.56
2018-09-09T16:32:11.646Z,10.65
2018-09-09T16:34:40.057Z,9.88
2018-09-09T16:37:08.657Z,11.18
2018-09-09T16:39:37.203Z,10.15
2018-09-09T16:42:05.668Z,9.74
2018-09-09T16:44:34.110Z,9.83
2018-09-09T16:47:02.799Z,10.17
2018-09-09T16:49:31.305Z,11.71
2018-09-09T16:51:59.821Z,13.58
2018-09-09T16:54:28.254Z,16.20
2018-09-09T16:56:56.751Z,18.89
2018-09-09T16:59:25.435Z,20.50
2018-09-09T17:01:53.922Z,22.40
2018-09-09T17:04:22.799Z,22.96
2018-09-09T17:06:52.506Z,24.11
2018-09-09T17:09:20.982Z,26.02
2018-09-09T17:11:49.530Z,25.63
2018-09-09T17:14:17.947Z,28.17
2018-09-09T17:16:46.454Z,28.18
2018-09-09T17:19:15.048Z,28.72
2018-09-09T17:21:43.557Z,30.37
2018-09-09T17:24:11.971Z,30.10
2018-09-09T17:26:40.473Z,31.79
2018-09-09T17:29:08.932Z,31.82
2018-09-09T17:31:37.430Z,33.31
2018-09-09T17:34:05.971Z,33.67
2018-09-09T17:36:34.509Z,34.08
2018-09-09T17:39:02.969Z,35.70
2018-09-09T17:41:31.462Z,38.04
2018-09-09T17:43:59.966Z,36.36
2018-09-09T17:46:28.489Z,35.83
2018-09-09T17:48:56.975Z,36.26
2018-09-09T17:51:25.505Z,36.38
2018-09-09T17:53:53.965Z,38.04
2018-09-09T17:56:22.446Z,37.67
2018-09-09T17:58:51.129Z,39.79
2018-09-09T18:01:19.782Z,40.88
2018-09-09T18:03:48.442Z,40.99
2018-09-09T18:06:17.125Z,42.40
2018-09-09T18:08:45.835Z,43.57
2018-09-09T18:11:14.318Z,43.20
2018-09-09T18:13:42.946Z,42.90
2018-09-09T18:16:11.443Z,41.77
2018-09-09T18:18:40.073Z,41.36
2018-09-09T18:21:08.869Z,40.46
2018-09-09T18:23:37.576Z,42.07
2018-09-09T18:26:06.992Z,41.81
2018-09-09T18:28:35.447Z,41.75
2018-09-09T18:31:03.957Z,41.53
2018-09-09T18:33:32.777Z,42.52
2018-09-09T18:36:01.267Z,43.18
2018-09-09T18:38:30.006Z,43.71
2018-09-09T18:40:58.526Z,44.58
2018-09-09T18:43:27.142Z,44.95
2018-09-09T18:45:55.625Z,44.79
2018-09-09T18:48:24.326Z,45.27
2018-09-09T18:50:53.455Z,45.45
2018-09-09T18:53:22.130Z,46.51
2018-09-09T18:55:51.639Z,46.64
2018-09-09T18:58:20.229Z,46.16
2018-09-09T19:00:48.671Z,46.92
2018-09-09T19:03:17.370Z,47.82
2018-09-09T19:05:45.857Z,48.24
2018-09-09T19:08:14.562Z,49.34
2018-09-09T19:10:43.184Z,50.00
2018-09-09T19:13:11.614Z,51.34
2018-09-09T19:15:40.298Z,52.60
2018-09-09T19:18:08.793Z,53.58
2018-09-09T19:20:37.518Z,54.27
2018-09-09T19:23:05.950Z,54.90
2018-09-09T19:25:34.557Z,54.05
2018-09-09T19:28:03.029Z,53.25
2018-09-09T19:30:31.549Z,54.66
2018-09-09T19:33:00.034Z,55.84
2018-09-09T19:35:28.484Z,58.27
2018-09-09T19:37:57.326Z,58.11
2018-09-09T19:40:25.833Z,57.61
2018-09-09T19:42:54.454Z,58.75
2018-09-09T19:45:23.030Z,59.88
2018-09-09T19:47:52.110Z,60.65
2018-09-09T19:50:20.592Z,61.49
2018-09-09T19:52:49.159Z,61.46
2018-09-09T19:55:17.796Z,60.38
2018-09-09T19:57:46.450Z,61.55
2018-09-09T20:00:15.205Z,62.14
2018-09-09T20:02:43.855Z,62.25
2018-09-09T20:05:12.390Z,63.22
2018-09-09T20:07:41.336Z,62.55
2018-09-09T20:10:09.899Z,63.48
2018-09-09T20:12:38.330Z,64.00
2018-09-09T20:15:06.877Z,63.63
2018-09-09T20:17:35.301Z,63.41
2018-09-09T20:20:03.986Z,64.23
2018-09-09T20:22:32.455Z,64.65
2018-09-09T20:25:01.058Z,62.59
2018-09-09T20:27:29.534Z,63.49
2018-09-09T20:29:58.026Z,65.86
2018-09-09T20:32:26.594Z,65.59
2018-09-09T20:34:55.126Z,66.58
2018-09-09T20:37:23.555Z,67.16
2018-09-09T20:39:52.313Z,67.46
2018-09-09T20:42:20.726Z,68.22
2018-09-09T20:44:49.358Z,65.58
2018-09-09T20:47:17.791Z,65.38
2018-09-09T20:49:46.306Z,64.51
2018-09-09T20:52:14.792Z,64.62
2018-09-09T20:54:43.286Z,65.68
2018-09-09T20:57:11.726Z,65.37
2018-09-09T20:59:40.181Z,66.30
2018-09-09T21:02:08.878Z,66.78
2018-09-09T21:04:38.098Z,67.31
2018-09-09T21:07:06.731Z,66.17
2018-09-09T21:09:35.209Z,68.89
2018-09-09T21:12:03.649Z,69.17
2018-09-09T21:14:32.122Z,69.68
2018-09-09T21:17:00.609Z,70.71
2018-09-09T21:19:30.510Z,69.98
2018-09-09T21:21:59.453Z,70.30
2018-09-09T21:24:28.059Z,69.54
2018-09-09T21:26:57.646Z,71.23
2018-09-09T21:29:26.079Z,71.69
2018-09-09T21:31:54.561Z,71.23
2018-09-09T21:34:23.838Z,72.17
2018-09-09T21:36:53.278Z,71.97
2018-09-09T21:39:22.666Z,73.04
2018-09-09T21:41:51.406Z,73.91
2018-09-09T21:44:19.840Z,73.57
2018-09-09T21:46:49.006Z,74.02
2018-09-09T21:49:17.686Z,73.87
2018-09-09T21:51:47.113Z,73.60
2018-09-09T21:54:15.610Z,73.41
2018-09-09T21:56:44.485Z,74.21
2018-09-09T21:59:13.002Z,73.48
2018-09-09T22:01:46.885Z,74.60
2018-09-09T22:04:16.358Z,75.04
2018-09-09T22:06:44.878Z,74.62
2018-09-09T22:09:13.382Z,73.77
2018-09-09T22:11:41.836Z,74.15
2018-09-09T22:14:10.313Z,75.19
2018-09-09T22:16:38.849Z,74.77
2018-09-09T22:19:07.553Z,74.34
2018-09-09T22:21:35.969Z,73.98
2018-09-09T22:24:04.429Z,73.52
2018-09-09T22:26:32.965Z,74.08
2018-09-09T22:29:01.373Z,74.15
2018-09-09T22:31:29.753Z,73.80
2018-09-09T22:33:58.228Z,73.65
2018-09-09T22:36:26.813Z,73.78
2018-09-09T22:38:55.234Z,74.86
2018-09-09T22:41:23.705Z,74.41
2018-09-09T22:43:53.117Z,74.04
2018-09-09T22:46:21.683Z,74.17
2018-09-09T22:48:50.448Z,74.54
2018-09-09T22:51:18.859Z,74.29
2018-09-09T22:53:47.358Z,74.50
2018-09-09T22:56:16.171Z,74.96
2018-09-09T22:58:44.641Z,76.12
2018-09-09T23:01:13.657Z,75.39
2018-09-09T23:03:42.105Z,77.00
2018-09-09T23:06:10.571Z,76.69
2018-09-09T23:08:39.149Z,76.71
2018-09-09T23:11:07.682Z,77.88
2018-09-09T23:13:36.150Z,76.67
2018-09-09T23:16:04.625Z,77.18
2018-09-09T23:18:33.127Z,76.18
2018-09-09T23:21:01.631Z,76.34
2018-09-09T23:23:30.070Z,76.57
2018-09-09T23:25:58.521Z,76.50
2018-09-09T23:28:27.078Z,76.11
2018-09-09T23:30:55.505Z,75.93
2018-09-09T23:33:23.977Z,77.50
2018-09-09T23:35:52.785Z,76.62
2018-09-09T23:38:21.309Z,77.69
2018-09-09T23:40:49.806Z,77.63
2018-09-09T23:43:18.282Z,77.73
2018-09-09T23:45:46.700Z,77.11
2018-09-09T23:48:15.221Z,78.30
2018-09-09T23:50:43.678Z,78.81
2018-09-09T23:53:12.109Z,80.02
2018-09-09T23:55:40.518Z,79.41
2018-09-09T23:58:08.973Z,79.83
